Aviation Digital Data Service (ADDS)

Output produced by METARs form (0526 UTC 29 June 2016)
found at http://www.aviationweather.gov/adds/metars/
 
KGED 290504Z AUTO 23003KT 10SM FEW009 23/21 A2988 RMK AO2 T02280211